createdAt,value
2023-05-10T00:00:57.239Z,15.80
2023-05-10T00:03:24.576Z,15.80
2023-05-10T00:05:51.709Z,15.90
2023-05-10T00:08:18.729Z,15.90
2023-05-10T00:10:45.806Z,15.90
2023-05-10T00:13:12.887Z,15.80
2023-05-10T00:15:39.891Z,15.90
2023-05-10T00:18:06.975Z,15.80
2023-05-10T00:20:34.017Z,15.90
2023-05-10T00:23:01.115Z,15.90
2023-05-10T00:25:28.109Z,15.90
2023-05-10T00:27:56.415Z,15.70
2023-05-10T00:30:23.628Z,15.70
2023-05-10T00:32:50.965Z,16.60
2023-05-10T00:35:18.086Z,15.70
2023-05-10T00:37:45.360Z,15.70
2023-05-10T00:40:12.755Z,15.60
2023-05-10T00:42:39.823Z,15.60
2023-05-10T00:45:07.736Z,15.60
2023-05-10T00:47:35.636Z,15.60
2023-05-10T00:50:03.508Z,15.60
2023-05-10T00:52:31.270Z,15.60
2023-05-10T00:54:59.429Z,15.60
2023-05-10T00:57:26.592Z,15.60
2023-05-10T00:59:53.800Z,15.60
2023-05-10T01:02:20.902Z,15.60
2023-05-10T01:04:48.754Z,15.50
2023-05-10T01:07:15.758Z,15.60
2023-05-10T01:09:42.887Z,15.50
2023-05-10T01:12:09.992Z,15.50
2023-05-10T01:14:37.426Z,15.40
2023-05-10T01:17:06.394Z,15.30
2023-05-10T01:19:36.105Z,15.30
2023-05-10T01:22:17.954Z,15.30
2023-05-10T01:24:47.790Z,15.40
2023-05-10T01:27:45.566Z,15.50
2023-05-10T01:30:18.576Z,15.50
2023-05-10T01:32:51.605Z,15.50
2023-05-10T01:35:41.488Z,15.50
2023-05-10T01:38:23.836Z,15.60
2023-05-10T01:41:11.396Z,15.50
2023-05-10T01:43:49.763Z,15.50
2023-05-10T01:46:21.831Z,15.40
2023-05-10T01:48:52.563Z,15.40
2023-05-10T01:51:26.557Z,15.40
2023-05-10T01:54:00.150Z,15.40
2023-05-10T01:56:29.291Z,15.40
2023-05-10T01:58:58.297Z,15.50
2023-05-10T02:01:27.570Z,15.50
2023-05-10T02:03:56.419Z,15.50
2023-05-10T02:06:24.989Z,15.60
2023-05-10T02:08:54.499Z,15.50
2023-05-10T02:11:22.514Z,15.50
2023-05-10T02:13:51.538Z,15.50
2023-05-10T02:16:24.101Z,15.50
2023-05-10T02:18:53.952Z,15.50
2023-05-10T02:21:22.695Z,15.50
2023-05-10T02:23:51.292Z,15.50
2023-05-10T02:26:19.118Z,15.60
2023-05-10T02:28:47.269Z,15.70
2023-05-10T02:31:15.510Z,15.70
2023-05-10T02:33:43.892Z,15.60
2023-05-10T02:36:11.765Z,15.60
2023-05-10T02:38:39.802Z,15.60
2023-05-10T02:41:09.099Z,15.70
2023-05-10T02:43:36.698Z,15.70
2023-05-10T02:46:04.137Z,15.70
2023-05-10T02:48:31.522Z,15.60
2023-05-10T02:51:05.614Z,15.50
2023-05-10T02:53:35.631Z,15.40
2023-05-10T02:56:10.527Z,15.50
2023-05-10T02:58:37.722Z,15.50
2023-05-10T03:01:05.002Z,15.50
2023-05-10T03:03:32.114Z,15.50
2023-05-10T03:05:59.595Z,15.50
2023-05-10T03:08:27.155Z,15.50
2023-05-10T03:11:08.996Z,15.50
2023-05-10T03:14:08.572Z,15.40
2023-05-10T03:16:52.201Z,15.30
2023-05-10T03:19:27.396Z,15.40
2023-05-10T03:21:58.343Z,15.40
2023-05-10T03:24:29.277Z,15.40
2023-05-10T03:27:00.405Z,15.50
2023-05-10T03:29:28.620Z,15.40
2023-05-10T03:31:55.977Z,15.50
2023-05-10T03:34:26.233Z,15.40
2023-05-10T03:36:53.390Z,15.40
2023-05-10T03:39:22.333Z,15.30
2023-05-10T03:41:49.315Z,15.30
2023-05-10T03:44:16.403Z,15.30
2023-05-10T03:46:43.508Z,15.20
2023-05-10T03:49:10.694Z,15.30
2023-05-10T03:51:37.778Z,15.30
2023-05-10T03:54:05.016Z,15.20
2023-05-10T03:56:32.030Z,15.30
2023-05-10T03:58:59.074Z,15.30
2023-05-10T04:01:26.137Z,15.20
2023-05-10T04:03:53.247Z,15.20
2023-05-10T04:06:20.577Z,15.20
2023-05-10T04:08:47.596Z,15.30
2023-05-10T04:11:15.247Z,15.30
2023-05-10T04:13:42.503Z,15.30
2023-05-10T04:16:10.052Z,15.20
2023-05-10T04:18:37.355Z,15.20
2023-05-10T04:21:04.502Z,15.20
2023-05-10T04:23:31.548Z,15.30
2023-05-10T04:26:02.796Z,15.20
2023-05-10T04:28:29.880Z,15.30
2023-05-10T04:31:07.769Z,14.10
2023-05-10T04:33:35.482Z,15.50
2023-05-10T04:36:04.063Z,15.50
2023-05-10T04:38:31.555Z,15.50
2023-05-10T04:41:08.949Z,15.50
2023-05-10T04:43:37.193Z,15.30
2023-05-10T04:46:05.077Z,15.30
2023-05-10T04:48:32.337Z,15.20
2023-05-10T04:50:59.428Z,15.30
2023-05-10T04:53:26.542Z,15.30
2023-05-10T04:55:53.635Z,15.30
2023-05-10T04:58:20.709Z,15.20
2023-05-10T05:00:47.907Z,15.20
2023-05-10T05:03:15.077Z,15.30
2023-05-10T05:05:42.280Z,15.20
2023-05-10T05:08:09.352Z,15.20
2023-05-10T05:10:36.455Z,15.20
2023-05-10T05:13:03.608Z,15.30
2023-05-10T05:15:31.666Z,15.20
2023-05-10T05:17:58.956Z,15.30
2023-05-10T05:20:26.063Z,15.30
2023-05-10T05:22:53.237Z,15.30
2023-05-10T05:25:20.384Z,15.40
2023-05-10T05:27:47.492Z,15.40
2023-05-10T05:30:14.768Z,15.40
2023-05-10T05:32:41.958Z,15.50
2023-05-10T05:35:09.298Z,15.50
2023-05-10T05:37:36.462Z,15.40
2023-05-10T05:40:04.149Z,15.40
2023-05-10T05:42:32.900Z,15.50
2023-05-10T05:45:00.212Z,15.40
2023-05-10T05:47:27.205Z,15.50
2023-05-10T05:49:54.264Z,15.50
2023-05-10T05:52:22.262Z,15.50
2023-05-10T05:54:49.602Z,15.40
2023-05-10T05:57:16.771Z,15.40
2023-05-10T05:59:44.986Z,15.50
2023-05-10T06:02:12.223Z,15.40
2023-05-10T06:04:39.399Z,15.30
2023-05-10T06:07:06.408Z,15.20
2023-05-10T06:09:33.380Z,15.10
2023-05-10T06:12:00.842Z,15.10
2023-05-10T06:14:27.831Z,15.00
2023-05-10T06:16:54.952Z,15.10
2023-05-10T06:19:22.052Z,15.00
2023-05-10T06:21:49.082Z,15.00
2023-05-10T06:24:16.123Z,15.10
2023-05-10T06:26:43.096Z,15.20
2023-05-10T06:29:10.358Z,15.20
2023-05-10T06:31:37.391Z,15.30
2023-05-10T06:34:04.585Z,15.20
2023-05-10T06:36:31.775Z,15.30
2023-05-10T06:38:58.806Z,15.30
2023-05-10T06:41:25.983Z,15.20
2023-05-10T06:43:53.207Z,15.20
2023-05-10T06:46:20.283Z,15.30
2023-05-10T06:48:47.741Z,15.20
2023-05-10T06:51:14.753Z,15.30
2023-05-10T06:53:41.803Z,15.50
2023-05-10T06:56:08.781Z,15.40
2023-05-10T06:58:35.888Z,15.30
2023-05-10T07:01:04.464Z,15.40
2023-05-10T07:03:32.001Z,15.40
2023-05-10T07:06:05.503Z,15.50
2023-05-10T07:08:33.000Z,15.60
2023-05-10T07:11:11.391Z,15.70
2023-05-10T07:13:40.314Z,15.80
2023-05-10T07:16:07.618Z,15.90
2023-05-10T07:18:35.083Z,16.00
2023-05-10T07:21:02.773Z,16.10
2023-05-10T07:23:30.586Z,16.20
2023-05-10T07:25:58.532Z,16.30
2023-05-10T07:28:25.615Z,16.20
2023-05-10T07:30:52.785Z,16.10
2023-05-10T07:33:20.379Z,16.10
2023-05-10T07:35:47.617Z,16.00
2023-05-10T07:38:14.721Z,16.10
2023-05-10T07:40:41.763Z,16.30
2023-05-10T07:43:08.874Z,16.40
2023-05-10T07:45:36.044Z,16.60
2023-05-10T07:48:03.254Z,16.70
2023-05-10T07:50:30.412Z,17.00
2023-05-10T07:52:57.696Z,17.00
2023-05-10T07:55:24.863Z,17.30
2023-05-10T07:57:52.216Z,17.90
2023-05-10T08:00:21.008Z,18.20
2023-05-10T08:02:49.068Z,18.10
2023-05-10T08:05:16.760Z,17.90
2023-05-10T08:07:44.072Z,17.70
2023-05-10T08:10:14.666Z,17.40
2023-05-10T08:12:41.756Z,17.30
2023-05-10T08:15:09.914Z,17.30
2023-05-10T08:17:37.023Z,17.30
2023-05-10T08:20:04.362Z,17.70
2023-05-10T08:22:31.452Z,17.80
2023-05-10T08:24:58.624Z,17.90
2023-05-10T08:27:25.738Z,17.80
2023-05-10T08:29:52.907Z,17.60
2023-05-10T08:32:20.008Z,17.80
2023-05-10T08:34:47.033Z,18.00
2023-05-10T08:37:14.584Z,18.80
2023-05-10T08:39:42.017Z,19.90
2023-05-10T08:42:10.424Z,20.70
2023-05-10T08:44:38.153Z,21.70
2023-05-10T08:47:10.130Z,22.60
2023-05-10T08:49:38.688Z,22.70
2023-05-10T08:52:07.287Z,22.30
2023-05-10T08:54:35.124Z,22.30
2023-05-10T08:57:02.749Z,22.20
2023-05-10T08:59:30.238Z,22.50
2023-05-10T09:01:59.641Z,22.30
2023-05-10T09:06:54.560Z,21.70
2023-05-10T09:09:23.997Z,22.50
2023-05-10T09:11:51.269Z,22.90
2023-05-10T09:14:19.679Z,22.30
2023-05-10T09:16:47.829Z,21.80
2023-05-10T09:19:15.215Z,20.80
2023-05-10T09:21:42.515Z,19.80
2023-05-10T09:24:10.221Z,19.00
2023-05-10T09:26:46.516Z,18.40
2023-05-10T09:29:16.656Z,18.20
2023-05-10T09:31:52.204Z,18.50
2023-05-10T09:34:30.799Z,18.70
2023-05-10T09:37:01.885Z,19.40
2023-05-10T09:39:38.923Z,19.80
2023-05-10T09:42:08.644Z,20.60
2023-05-10T09:44:36.887Z,21.70
2023-05-10T09:47:04.728Z,22.80
2023-05-10T09:49:31.913Z,23.50
2023-05-10T09:52:09.207Z,24.30
2023-05-10T09:54:37.195Z,25.20
2023-05-10T09:57:04.402Z,25.60
2023-05-10T09:59:36.363Z,26.00
2023-05-10T10:02:03.968Z,27.00
2023-05-10T10:04:31.318Z,26.10
2023-05-10T10:07:02.607Z,25.60
2023-05-10T10:09:30.157Z,24.70
2023-05-10T10:11:57.885Z,24.50
2023-05-10T10:14:25.274Z,24.00
2023-05-10T10:17:06.488Z,23.50
2023-05-10T10:19:37.106Z,23.00
2023-05-10T10:22:04.684Z,22.40
2023-05-10T10:24:31.736Z,22.20
2023-05-10T10:27:20.776Z,22.00
2023-05-10T10:30:05.006Z,21.60
2023-05-10T10:33:05.572Z,21.40
2023-05-10T10:35:37.913Z,21.30
2023-05-10T10:38:05.432Z,21.50
2023-05-10T10:40:35.086Z,21.60
2023-05-10T10:43:25.402Z,21.50
2023-05-10T10:46:15.743Z,21.30
2023-05-10T10:48:49.492Z,21.50
2023-05-10T10:51:16.681Z,21.20
2023-05-10T10:53:44.768Z,20.90
2023-05-10T10:56:16.320Z,20.70
2023-05-10T10:58:52.319Z,20.30
2023-05-10T11:01:20.764Z,19.80
2023-05-10T11:04:00.178Z,19.50
2023-05-10T11:06:35.159Z,19.40
2023-05-10T11:09:10.003Z,19.40
2023-05-10T11:11:49.236Z,19.90
2023-05-10T11:14:22.536Z,19.90
2023-05-10T11:16:49.871Z,19.70
2023-05-10T11:19:18.638Z,19.60
2023-05-10T11:21:50.295Z,19.50
2023-05-10T11:24:23.495Z,19.40
2023-05-10T11:26:55.001Z,19.30
2023-05-10T11:29:22.330Z,19.30
2023-05-10T11:31:50.682Z,19.40
2023-05-10T11:34:26.029Z,19.30
2023-05-10T11:36:57.669Z,19.20
2023-05-10T11:39:29.224Z,19.20
2023-05-10T11:41:56.829Z,19.10
2023-05-10T11:44:24.506Z,18.90
2023-05-10T11:46:51.791Z,18.60
2023-05-10T11:49:19.286Z,18.50
2023-05-10T11:51:46.830Z,18.60
2023-05-10T11:54:14.754Z,18.80
2023-05-10T11:56:42.469Z,18.70
2023-05-10T11:59:09.826Z,18.80
2023-05-10T12:01:38.150Z,18.70
2023-05-10T12:04:05.617Z,18.60
2023-05-10T12:06:38.228Z,18.50
2023-05-10T12:09:11.273Z,18.60
2023-05-10T12:11:44.175Z,18.70
2023-05-10T12:14:12.347Z,19.00
2023-05-10T12:16:39.498Z,19.40
2023-05-10T12:19:06.838Z,19.50
2023-05-10T12:21:34.420Z,19.30
2023-05-10T12:24:04.057Z,19.00
2023-05-10T12:26:31.392Z,18.70
2023-05-10T12:29:19.114Z,18.50
2023-05-10T12:32:00.656Z,18.30
2023-05-10T12:34:29.054Z,19.00
2023-05-10T12:36:56.915Z,18.10
2023-05-10T12:39:25.513Z,18.10
2023-05-10T12:41:53.114Z,18.10
2023-05-10T12:44:20.270Z,17.90
2023-05-10T12:46:47.417Z,17.60
2023-05-10T12:49:14.544Z,17.40
2023-05-10T12:51:41.940Z,17.10
2023-05-10T12:54:09.073Z,16.80
2023-05-10T12:56:36.254Z,16.70
2023-05-10T12:59:03.309Z,16.70
2023-05-10T13:01:30.783Z,16.70
2023-05-10T13:03:58.028Z,16.90
2023-05-10T13:06:25.157Z,17.00
2023-05-10T13:08:52.877Z,17.20
2023-05-10T13:11:20.917Z,17.30
2023-05-10T13:13:48.100Z,17.40
2023-05-10T13:16:15.487Z,17.50
2023-05-10T13:18:42.632Z,17.60
2023-05-10T13:21:09.819Z,17.70
2023-05-10T13:23:36.958Z,17.80
2023-05-10T13:26:03.968Z,18.00
2023-05-10T13:28:31.405Z,18.00
2023-05-10T13:30:58.579Z,18.00
2023-05-10T13:33:25.845Z,18.00
2023-05-10T13:35:55.099Z,18.00
2023-05-10T13:38:22.885Z,18.20
2023-05-10T13:40:53.719Z,18.20
2023-05-10T13:43:21.231Z,18.20
2023-05-10T13:45:48.369Z,18.00
2023-05-10T13:48:15.545Z,18.00
2023-05-10T13:50:42.814Z,18.20
2023-05-10T13:53:09.850Z,18.30
2023-05-10T13:55:37.298Z,18.30
2023-05-10T13:58:04.425Z,18.50
2023-05-10T14:00:31.664Z,18.60
2023-05-10T14:02:58.932Z,18.70
2023-05-10T14:05:26.703Z,18.80
2023-05-10T14:07:54.761Z,19.10
2023-05-10T14:10:21.914Z,19.30
2023-05-10T14:12:49.031Z,19.50
2023-05-10T14:15:16.539Z,19.50
2023-05-10T14:17:43.801Z,19.40
2023-05-10T14:20:11.683Z,19.40
2023-05-10T14:22:38.852Z,19.50
2023-05-10T14:25:06.163Z,19.70
2023-05-10T14:27:33.691Z,19.70
2023-05-10T14:30:00.942Z,19.70
2023-05-10T14:32:28.907Z,19.80
2023-05-10T14:34:56.767Z,19.90
2023-05-10T14:37:23.789Z,19.80
2023-05-10T14:39:50.902Z,19.60
2023-05-10T14:42:17.862Z,19.30
2023-05-10T14:44:45.007Z,19.00
2023-05-10T14:47:12.446Z,18.80
2023-05-10T14:49:39.562Z,18.90
2023-05-10T14:52:06.666Z,18.90
2023-05-10T14:54:34.630Z,18.90
2023-05-10T14:57:01.749Z,19.10
2023-05-10T14:59:28.781Z,19.10
2023-05-10T15:01:56.722Z,19.10
2023-05-10T15:04:25.109Z,19.10
2023-05-10T15:07:00.031Z,19.20
2023-05-10T15:09:28.874Z,19.40
2023-05-10T15:11:56.646Z,19.70
2023-05-10T15:14:24.131Z,19.80
2023-05-10T15:16:51.277Z,19.80
2023-05-10T15:19:18.353Z,19.70
2023-05-10T15:21:46.044Z,19.60
2023-05-10T15:24:13.056Z,19.40
2023-05-10T15:26:40.401Z,19.30
2023-05-10T15:29:07.433Z,19.20
2023-05-10T15:31:37.709Z,19.10
2023-05-10T15:34:04.866Z,19.20
2023-05-10T15:36:33.220Z,19.20
2023-05-10T15:39:00.232Z,19.30
2023-05-10T15:41:27.850Z,19.50
2023-05-10T15:43:55.134Z,19.70
2023-05-10T15:46:22.722Z,20.00
2023-05-10T15:48:49.931Z,19.80
2023-05-10T15:51:17.112Z,19.80
2023-05-10T15:53:56.428Z,19.80
2023-05-10T15:56:31.341Z,19.60
2023-05-10T15:58:58.424Z,19.50
2023-05-10T16:01:25.716Z,19.50
2023-05-10T16:03:52.944Z,19.50
2023-05-10T16:06:20.128Z,19.30
2023-05-10T16:08:47.242Z,19.20
2023-05-10T16:11:14.379Z,19.10
2023-05-10T16:13:41.577Z,19.20
2023-05-10T16:16:09.088Z,19.00
2023-05-10T16:18:36.474Z,19.00
2023-05-10T16:21:03.991Z,18.70
2023-05-10T16:23:31.200Z,18.50
2023-05-10T16:25:58.497Z,18.40
2023-05-10T16:28:25.722Z,18.30
2023-05-10T16:30:53.045Z,18.30
2023-05-10T16:33:20.200Z,18.10
2023-05-10T16:35:47.351Z,18.00
2023-05-10T16:38:15.089Z,18.00
2023-05-10T16:40:42.151Z,17.90
2023-05-10T16:43:09.339Z,18.10
2023-05-10T16:45:36.445Z,18.10
2023-05-10T16:48:03.948Z,17.90
2023-05-10T16:50:31.125Z,17.80
2023-05-10T16:52:58.204Z,17.60
2023-05-10T16:55:26.300Z,17.50
2023-05-10T16:57:58.759Z,17.10
2023-05-10T17:00:29.381Z,16.90
2023-05-10T17:02:56.638Z,16.90
2023-05-10T17:05:23.795Z,17.00
2023-05-10T17:07:50.998Z,17.10
2023-05-10T17:10:18.268Z,17.30
2023-05-10T17:12:46.065Z,17.30
2023-05-10T17:15:19.140Z,17.30
2023-05-10T17:17:47.725Z,17.10
2023-05-10T17:20:14.812Z,17.10
2023-05-10T17:22:42.140Z,16.90
2023-05-10T17:25:09.599Z,16.80
2023-05-10T17:27:36.837Z,16.80
2023-05-10T17:30:04.330Z,16.80
2023-05-10T17:32:31.522Z,17.00
2023-05-10T17:34:59.043Z,17.20
2023-05-10T17:37:26.164Z,17.40
2023-05-10T17:39:53.225Z,17.40
2023-05-10T17:42:21.056Z,17.40
2023-05-10T17:44:48.478Z,17.30
2023-05-10T17:47:15.667Z,17.20
2023-05-10T17:49:42.724Z,17.20
2023-05-10T17:52:09.879Z,17.20
2023-05-10T17:54:36.911Z,17.30
2023-05-10T17:57:04.133Z,17.30
2023-05-10T17:59:31.212Z,17.30
2023-05-10T18:01:58.319Z,17.50
2023-05-10T18:04:26.123Z,17.40
2023-05-10T18:07:01.081Z,17.30
2023-05-10T18:09:28.913Z,17.40
2023-05-10T18:11:56.090Z,17.30
2023-05-10T18:14:39.101Z,17.30
2023-05-10T18:17:08.372Z,17.30
2023-05-10T18:19:35.485Z,17.30
2023-05-10T18:22:02.891Z,17.30
2023-05-10T18:24:39.008Z,17.30
2023-05-10T18:27:11.442Z,17.20
2023-05-10T18:29:39.204Z,17.10
2023-05-10T18:32:06.976Z,17.10
2023-05-10T18:34:34.520Z,17.00
2023-05-10T18:37:03.085Z,16.90
2023-05-10T18:39:30.198Z,16.70
2023-05-10T18:41:57.330Z,16.80
2023-05-10T18:44:26.561Z,16.80
2023-05-10T18:46:54.376Z,16.70
2023-05-10T18:49:21.553Z,16.60
2023-05-10T18:51:48.694Z,16.60
2023-05-10T18:54:15.862Z,16.70
2023-05-10T18:56:45.279Z,16.60
2023-05-10T18:59:12.858Z,16.50
2023-05-10T19:01:41.774Z,16.40
2023-05-10T19:04:09.151Z,16.30
2023-05-10T19:06:36.599Z,16.10
2023-05-10T19:09:03.795Z,16.10
2023-05-10T19:11:34.081Z,16.10
2023-05-10T19:14:01.922Z,16.10
2023-05-10T19:16:30.546Z,16.10
2023-05-10T19:18:58.000Z,16.10
2023-05-10T19:21:25.717Z,16.00
2023-05-10T19:23:53.694Z,15.80
2023-05-10T19:26:21.724Z,15.90
2023-05-10T19:28:52.658Z,15.90
2023-05-10T19:31:21.062Z,15.90
2023-05-10T19:33:48.216Z,15.90
2023-05-10T19:36:15.537Z,15.90
2023-05-10T19:38:43.093Z,16.00
2023-05-10T19:41:11.411Z,16.00
2023-05-10T19:43:39.769Z,15.90
2023-05-10T19:46:07.014Z,15.90
2023-05-10T19:48:34.256Z,15.90
2023-05-10T19:51:07.713Z,15.90
2023-05-10T19:53:36.595Z,15.90
2023-05-10T19:56:07.283Z,15.90
2023-05-10T19:58:34.636Z,15.80
2023-05-10T20:01:02.037Z,15.90
2023-05-10T20:03:29.437Z,15.90
2023-05-10T20:05:56.546Z,15.90
2023-05-10T20:08:23.682Z,15.90
2023-05-10T20:10:50.823Z,15.80
2023-05-10T20:13:18.063Z,15.80
2023-05-10T20:15:46.086Z,15.70
2023-05-10T20:18:13.420Z,15.70
2023-05-10T20:20:40.625Z,15.70
2023-05-10T20:23:07.840Z,15.80
2023-05-10T20:25:35.573Z,15.80
2023-05-10T20:28:03.122Z,15.80
2023-05-10T20:30:30.329Z,15.70
2023-05-10T20:32:57.868Z,15.80
2023-05-10T20:35:24.964Z,15.60
2023-05-10T20:37:52.162Z,15.50
2023-05-10T20:40:19.393Z,15.50
2023-05-10T20:42:47.765Z,15.40
2023-05-10T20:45:15.378Z,15.30
2023-05-10T20:47:42.598Z,15.30
2023-05-10T20:50:10.018Z,15.40
2023-05-10T20:52:37.190Z,15.40
2023-05-10T20:55:04.626Z,15.30
2023-05-10T20:57:31.831Z,15.30
2023-05-10T20:59:58.961Z,15.40
2023-05-10T21:02:26.228Z,15.30
2023-05-10T21:04:54.505Z,15.30
2023-05-10T21:07:23.553Z,15.40
2023-05-10T21:09:50.723Z,15.40
2023-05-10T21:12:17.782Z,15.40
2023-05-10T21:14:46.995Z,15.40
2023-05-10T21:17:14.743Z,15.40
2023-05-10T21:19:41.895Z,15.40
2023-05-10T21:22:08.993Z,15.30
2023-05-10T21:24:36.113Z,15.20
2023-05-10T21:27:03.850Z,15.10
2023-05-10T21:29:32.158Z,15.20
2023-05-10T21:31:59.325Z,15.10
2023-05-10T21:34:26.875Z,15.00
2023-05-10T21:36:55.015Z,15.00
2023-05-10T21:39:22.330Z,15.00
2023-05-10T21:41:49.402Z,15.00
2023-05-10T21:44:16.629Z,15.00
2023-05-10T21:46:44.418Z,15.00
2023-05-10T21:49:11.544Z,14.90
2023-05-10T21:51:38.603Z,14.80
2023-05-10T21:54:05.898Z,14.80
2023-05-10T21:56:33.056Z,14.80
2023-05-10T21:59:00.163Z,14.80
2023-05-10T22:01:27.870Z,14.90
2023-05-10T22:03:55.136Z,14.90
2023-05-10T22:06:22.143Z,14.80
2023-05-10T22:08:49.101Z,14.70
2023-05-10T22:11:16.263Z,14.70
2023-05-10T22:13:43.358Z,14.70
2023-05-10T22:16:10.474Z,14.60
2023-05-10T22:18:37.827Z,14.60
2023-05-10T22:21:05.122Z,14.60
2023-05-10T22:23:32.276Z,14.70
2023-05-10T22:26:03.048Z,14.60
2023-05-10T22:28:30.719Z,14.70
2023-05-10T22:30:57.837Z,14.80
2023-05-10T22:33:25.080Z,14.70
2023-05-10T22:35:52.236Z,14.70
2023-05-10T22:38:19.599Z,14.80
2023-05-10T22:40:46.581Z,14.70
2023-05-10T22:43:13.802Z,14.70
2023-05-10T22:45:40.779Z,14.70
2023-05-10T22:48:09.542Z,14.60
2023-05-10T22:50:37.058Z,14.60
2023-05-10T22:53:04.451Z,14.70
2023-05-10T22:55:31.497Z,14.70
2023-05-10T22:57:58.942Z,14.70
2023-05-10T23:00:26.471Z,14.60
2023-05-10T23:02:54.390Z,14.70
2023-05-10T23:05:21.496Z,14.60
2023-05-10T23:07:53.178Z,14.60
2023-05-10T23:10:20.858Z,14.50
2023-05-10T23:12:48.284Z,14.60
2023-05-10T23:15:15.411Z,14.60
2023-05-10T23:17:42.677Z,14.80
2023-05-10T23:20:10.510Z,14.70
2023-05-10T23:22:37.568Z,14.70
2023-05-10T23:25:05.328Z,14.70
2023-05-10T23:27:32.289Z,14.70
2023-05-10T23:29:59.702Z,14.70
2023-05-10T23:32:26.782Z,14.70
2023-05-10T23:34:53.873Z,14.70
2023-05-10T23:37:21.369Z,14.60
2023-05-10T23:39:48.555Z,14.60
2023-05-10T23:42:15.653Z,14.60
2023-05-10T23:44:42.769Z,14.60
2023-05-10T23:47:09.904Z,14.60
2023-05-10T23:49:38.093Z,14.60
2023-05-10T23:52:05.159Z,14.60
2023-05-10T23:54:32.254Z,14.70
2023-05-10T23:56:59.335Z,14.70
2023-05-10T23:59:26.694Z,14.60
